createdAt,value
2017-10-25T00:00:31.515Z,1.20
2017-10-25T00:02:59.006Z,0.70
2017-10-25T00:05:26.503Z,1.80
2017-10-25T00:07:54.801Z,2.10
2017-10-25T00:10:22.294Z,0.70
2017-10-25T00:12:49.818Z,1.33
2017-10-25T00:15:17.306Z,0.83
2017-10-25T00:17:44.828Z,1.00
2017-10-25T00:20:12.313Z,4.30
2017-10-25T00:22:39.850Z,0.93
2017-10-25T00:25:07.359Z,1.37
2017-10-25T00:27:34.898Z,1.20
2017-10-25T00:30:02.402Z,0.80
2017-10-25T00:32:29.894Z,1.17
2017-10-25T00:34:57.421Z,4.20
2017-10-25T00:37:24.913Z,4.70
2017-10-25T00:39:52.435Z,0.90
2017-10-25T00:42:20.694Z,1.80
2017-10-25T00:44:48.228Z,0.93
2017-10-25T00:47:15.721Z,0.80
2017-10-25T00:49:43.277Z,0.80
2017-10-25T00:52:11.534Z,0.67
2017-10-25T00:54:39.830Z,0.97
2017-10-25T00:57:08.122Z,1.00
2017-10-25T00:59:35.660Z,0.70
2017-10-25T01:02:03.158Z,2.13
2017-10-25T01:04:31.430Z,2.80
2017-10-25T01:06:58.962Z,0.97
2017-10-25T01:09:26.467Z,1.50
2017-10-25T01:11:54.018Z,0.80
2017-10-25T01:14:21.501Z,2.10
2017-10-25T01:16:49.035Z,1.00
2017-10-25T01:19:16.526Z,0.67
2017-10-25T01:21:44.086Z,1.03
2017-10-25T01:24:11.577Z,2.00
2017-10-25T01:26:39.132Z,0.97
2017-10-25T01:29:06.637Z,0.60
2017-10-25T01:31:34.179Z,1.00
2017-10-25T01:34:01.671Z,1.00
2017-10-25T01:36:29.177Z,1.80
2017-10-25T01:38:56.703Z,0.90
2017-10-25T01:41:24.205Z,2.17
2017-10-25T01:43:51.749Z,0.90
2017-10-25T01:46:19.265Z,2.20
2017-10-25T01:48:47.562Z,0.93
2017-10-25T01:51:15.053Z,0.90
2017-10-25T01:53:42.602Z,4.00
2017-10-25T01:56:10.096Z,1.53
2017-10-25T01:58:37.589Z,4.70
2017-10-25T02:01:05.130Z,0.93
2017-10-25T02:03:32.629Z,1.57
2017-10-25T02:06:00.164Z,1.10
2017-10-25T02:08:27.654Z,1.00
2017-10-25T02:10:55.178Z,1.90
2017-10-25T02:13:22.689Z,1.57
2017-10-25T02:15:50.218Z,1.07
2017-10-25T02:18:17.708Z,3.63
2017-10-25T02:20:45.997Z,1.53
2017-10-25T02:23:13.484Z,2.13
2017-10-25T02:25:41.029Z,1.30
2017-10-25T02:28:08.526Z,2.37
2017-10-25T02:30:36.030Z,1.50
2017-10-25T02:33:03.557Z,1.43
2017-10-25T02:35:31.811Z,2.20
2017-10-25T02:37:59.341Z,2.83
2017-10-25T02:40:26.833Z,4.20
2017-10-25T02:42:54.364Z,3.50
2017-10-25T02:45:21.849Z,2.17
2017-10-25T02:47:49.373Z,5.43
2017-10-25T02:50:16.865Z,2.00
2017-10-25T02:52:45.171Z,2.40
2017-10-25T02:55:12.666Z,1.90
2017-10-25T02:57:40.161Z,1.80
2017-10-25T03:00:07.691Z,3.87
2017-10-25T03:02:35.190Z,2.73
2017-10-25T03:05:02.718Z,2.17
2017-10-25T03:07:30.221Z,2.00
2017-10-25T03:09:57.753Z,3.73
2017-10-25T03:12:26.011Z,3.67
2017-10-25T03:14:53.565Z,2.03
2017-10-25T03:17:21.053Z,1.97
2017-10-25T03:19:48.553Z,4.87
2017-10-25T03:22:16.860Z,2.53
2017-10-25T03:24:44.354Z,1.90
2017-10-25T03:27:11.876Z,3.37
2017-10-25T03:29:39.361Z,3.27
2017-10-25T03:32:07.662Z,1.77
2017-10-25T03:34:35.170Z,5.43
2017-10-25T03:37:02.745Z,2.10
2017-10-25T03:39:30.518Z,2.40
2017-10-25T03:41:58.023Z,2.00
2017-10-25T03:44:25.553Z,3.20
2017-10-25T03:46:53.042Z,1.97
2017-10-25T03:49:20.571Z,3.33
2017-10-25T03:51:48.064Z,1.63
2017-10-25T03:54:15.594Z,1.80
2017-10-25T03:56:43.855Z,3.37
2017-10-25T03:59:11.387Z,1.90
2017-10-25T04:01:38.886Z,2.03
2017-10-25T04:04:06.437Z,10.63
2017-10-25T04:06:33.927Z,2.83
2017-10-25T04:09:01.474Z,2.20
2017-10-25T04:11:28.970Z,4.37
2017-10-25T04:13:56.470Z,2.20
2017-10-25T04:16:24.005Z,1.87
2017-10-25T04:18:51.519Z,2.70
2017-10-25T04:21:19.052Z,2.17
2017-10-25T04:23:46.545Z,2.10
2017-10-25T04:26:14.070Z,2.27
2017-10-25T04:28:41.566Z,3.27
2017-10-25T04:31:09.102Z,2.60
2017-10-25T04:33:36.598Z,2.70
2017-10-25T04:36:04.151Z,2.20
2017-10-25T04:38:31.638Z,4.63
2017-10-25T04:40:59.128Z,3.40
2017-10-25T04:43:26.665Z,1.93
2017-10-25T04:45:54.170Z,3.30
2017-10-25T04:48:21.710Z,7.07
2017-10-25T04:50:49.214Z,1.67
2017-10-25T04:53:16.740Z,3.20
2017-10-25T04:55:44.731Z,2.10
2017-10-25T04:58:12.258Z,1.93
2017-10-25T05:00:39.746Z,2.60
2017-10-25T05:03:07.284Z,4.53
2017-10-25T05:05:34.789Z,3.00
2017-10-25T05:08:02.317Z,2.17
2017-10-25T05:10:29.828Z,3.00
2017-10-25T05:12:57.379Z,3.53
2017-10-25T05:15:24.886Z,2.90
2017-10-25T05:17:53.149Z,2.50
2017-10-25T05:20:20.683Z,8.30
2017-10-25T05:22:48.173Z,1.97
2017-10-25T05:25:15.698Z,2.60
2017-10-25T05:27:43.185Z,5.00
2017-10-25T05:30:10.714Z,2.70
2017-10-25T05:32:38.207Z,2.17
2017-10-25T05:35:06.538Z,2.77
2017-10-25T05:37:34.031Z,2.20
2017-10-25T05:40:01.589Z,1.57
2017-10-25T05:42:29.089Z,2.33
2017-10-25T05:44:56.651Z,5.63
2017-10-25T05:47:24.173Z,2.50
2017-10-25T05:49:51.704Z,1.80
2017-10-25T05:52:19.207Z,2.23
2017-10-25T05:54:46.773Z,2.73
2017-10-25T05:57:15.034Z,8.93
2017-10-25T05:59:42.537Z,2.63
2017-10-25T06:02:10.083Z,6.20
2017-10-25T06:04:38.210Z,5.80
2017-10-25T06:07:07.794Z,3.33
2017-10-25T06:09:35.296Z,2.97
2017-10-25T06:12:02.832Z,5.40
2017-10-25T06:14:30.342Z,2.30
2017-10-25T06:16:57.982Z,2.43
2017-10-25T06:19:25.481Z,2.20
2017-10-25T06:21:52.978Z,2.23
2017-10-25T06:24:20.506Z,6.93
2017-10-25T06:26:48.792Z,3.63
2017-10-25T06:29:16.349Z,2.27
2017-10-25T06:31:44.649Z,8.63
2017-10-25T06:34:12.174Z,1.90
2017-10-25T06:36:39.682Z,2.10
2017-10-25T06:39:07.250Z,4.80
2017-10-25T06:41:34.750Z,3.73
2017-10-25T06:44:03.009Z,6.43
2017-10-25T06:46:30.533Z,1.90
2017-10-25T06:48:58.021Z,3.03
2017-10-25T06:51:25.545Z,2.20
2017-10-25T06:53:53.797Z,3.27
2017-10-25T06:56:21.331Z,2.40
2017-10-25T06:58:48.832Z,3.53
2017-10-25T07:01:16.417Z,1.90
2017-10-25T07:03:43.912Z,3.53
2017-10-25T07:06:11.439Z,3.90
2017-10-25T07:08:38.938Z,2.17
2017-10-25T07:11:06.534Z,3.20
2017-10-25T07:13:34.805Z,2.50
2017-10-25T07:16:02.305Z,4.93
2017-10-25T07:18:29.833Z,2.90
2017-10-25T07:20:57.332Z,7.17
2017-10-25T07:23:24.862Z,3.03
2017-10-25T07:25:52.361Z,3.13
2017-10-25T07:28:19.899Z,7.20
2017-10-25T07:30:47.396Z,3.43
2017-10-25T07:33:15.021Z,2.83
2017-10-25T07:35:42.512Z,1.97
2017-10-25T07:38:10.046Z,3.57
2017-10-25T07:40:38.313Z,2.60
2017-10-25T07:43:05.838Z,6.03
2017-10-25T07:45:33.324Z,2.57
2017-10-25T07:48:01.194Z,4.67
2017-10-25T07:50:28.685Z,4.67
2017-10-25T07:52:56.190Z,2.23
2017-10-25T07:55:23.731Z,3.73
2017-10-25T07:57:51.217Z,2.30
2017-10-25T08:00:18.754Z,2.60
2017-10-25T08:02:46.242Z,3.90
2017-10-25T08:05:13.762Z,2.60
2017-10-25T08:07:42.018Z,2.30
2017-10-25T08:10:09.545Z,3.90
2017-10-25T08:12:37.040Z,2.83
2017-10-25T08:15:04.569Z,2.30
2017-10-25T08:17:32.830Z,2.00
2017-10-25T08:20:00.358Z,3.73
2017-10-25T08:22:27.849Z,1.80
2017-10-25T08:24:55.339Z,2.30
2017-10-25T08:27:22.881Z,4.53
2017-10-25T08:29:50.377Z,2.70
2017-10-25T08:32:17.899Z,2.27
2017-10-25T08:34:45.393Z,3.43
2017-10-25T08:37:12.931Z,2.93
2017-10-25T08:39:40.426Z,2.77
2017-10-25T08:42:07.918Z,5.00
2017-10-25T08:44:35.468Z,2.13
2017-10-25T08:47:02.993Z,4.03
2017-10-25T08:49:30.520Z,1.67
2017-10-25T08:51:58.010Z,3.17
2017-10-25T08:54:25.555Z,4.97
2017-10-25T08:56:53.063Z,2.57
2017-10-25T08:59:20.613Z,2.00
2017-10-25T09:01:48.102Z,2.10
2017-10-25T09:04:15.707Z,1.63
2017-10-25T09:06:43.976Z,1.80
2017-10-25T09:09:11.473Z,3.40
2017-10-25T09:11:39.770Z,6.47
2017-10-25T09:14:07.268Z,1.90
2017-10-25T09:16:34.817Z,1.73
2017-10-25T09:19:02.322Z,1.93
2017-10-25T09:21:29.874Z,3.33
2017-10-25T09:23:57.378Z,2.90
2017-10-25T09:26:24.910Z,7.93
2017-10-25T09:28:52.401Z,5.43
2017-10-25T09:31:20.051Z,1.50
2017-10-25T09:33:47.556Z,5.43
2017-10-25T09:36:15.045Z,1.60
2017-10-25T09:38:42.575Z,3.50
2017-10-25T09:41:10.107Z,5.80
2017-10-25T09:43:37.643Z,1.77
2017-10-25T09:46:05.142Z,1.63
2017-10-25T09:48:32.738Z,3.40
2017-10-25T09:51:00.998Z,1.43
2017-10-25T09:53:28.541Z,2.50
2017-10-25T09:55:56.047Z,3.43
2017-10-25T09:58:23.537Z,1.27
2017-10-25T10:00:51.833Z,1.50
2017-10-25T10:03:20.090Z,2.57
2017-10-25T10:05:47.630Z,1.30
2017-10-25T10:08:15.137Z,4.63
2017-10-25T10:10:42.664Z,2.43
2017-10-25T10:13:10.154Z,1.20
2017-10-25T10:15:37.682Z,5.90
2017-10-25T10:18:05.952Z,4.53
2017-10-25T10:20:33.491Z,5.83
2017-10-25T10:23:00.993Z,1.83
2017-10-25T10:25:28.549Z,1.90
2017-10-25T10:27:56.047Z,2.00
2017-10-25T10:30:24.303Z,1.80
2017-10-25T10:32:51.860Z,1.43
2017-10-25T10:35:19.372Z,1.47
2017-10-25T10:37:46.898Z,1.67
2017-10-25T10:40:14.389Z,1.33
2017-10-25T10:42:41.935Z,1.60
2017-10-25T10:45:09.431Z,5.33
2017-10-25T10:47:36.979Z,2.50
2017-10-25T10:50:04.473Z,2.07
2017-10-25T10:52:32.005Z,2.30
2017-10-25T10:54:59.505Z,2.40
2017-10-25T10:57:27.036Z,1.93
2017-10-25T10:59:54.529Z,4.03
2017-10-25T11:02:22.271Z,2.33
2017-10-25T11:04:49.784Z,1.87
2017-10-25T11:07:17.305Z,11.90
2017-10-25T11:09:44.860Z,1.60
2017-10-25T11:12:12.486Z,3.57
2017-10-25T11:14:40.009Z,4.77
2017-10-25T11:17:07.510Z,2.83
2017-10-25T11:19:35.820Z,2.00
2017-10-25T11:22:04.327Z,2.90
2017-10-25T11:24:31.880Z,2.83
2017-10-25T11:26:59.369Z,6.43
2017-10-25T11:29:26.912Z,1.50
2017-10-25T11:31:55.173Z,2.40
2017-10-25T11:34:22.664Z,23.00
2017-10-25T11:36:50.965Z,1.87
2017-10-25T11:39:19.237Z,2.60
2017-10-25T11:41:46.769Z,2.20
2017-10-25T11:44:14.282Z,10.53
2017-10-25T11:46:41.813Z,2.83
2017-10-25T11:49:09.317Z,5.73
2017-10-25T11:51:36.862Z,5.70
2017-10-25T11:54:04.365Z,2.80
2017-10-25T11:56:32.635Z,3.10
2017-10-25T11:59:00.166Z,6.90
2017-10-25T12:01:27.666Z,3.77
2017-10-25T12:03:55.190Z,4.23
2017-10-25T12:06:22.681Z,4.00
2017-10-25T12:08:50.202Z,2.90
2017-10-25T12:11:17.716Z,9.73
2017-10-25T12:13:45.283Z,5.93
2017-10-25T12:16:12.859Z,4.60
2017-10-25T12:18:40.349Z,10.20
2017-10-25T12:21:07.874Z,2.20
2017-10-25T12:23:35.378Z,5.80
2017-10-25T12:26:02.906Z,2.10
2017-10-25T12:28:30.406Z,2.93
2017-10-25T12:30:58.696Z,2.67
2017-10-25T12:33:26.961Z,8.67
2017-10-25T12:35:54.493Z,2.13
2017-10-25T12:38:21.989Z,1.90
2017-10-25T12:40:49.530Z,4.30
2017-10-25T12:43:17.029Z,2.90
2017-10-25T12:45:44.539Z,2.23
2017-10-25T12:48:12.097Z,3.57
2017-10-25T12:50:40.361Z,2.40
2017-10-25T12:53:07.893Z,2.03
2017-10-25T12:55:35.397Z,2.57
2017-10-25T12:58:02.942Z,2.77
2017-10-25T13:00:30.441Z,2.40
2017-10-25T13:02:57.981Z,8.43
2017-10-25T13:05:25.478Z,7.87
2017-10-25T13:07:52.969Z,5.73
2017-10-25T13:10:36.277Z,3.80
2017-10-25T13:13:21.105Z,2.40
2017-10-25T13:16:12.631Z,5.77
2017-10-25T13:18:48.309Z,3.87
2017-10-25T13:21:16.566Z,2.83
2017-10-25T13:23:44.094Z,5.67
2017-10-25T13:26:11.598Z,6.50
2017-10-25T13:28:39.138Z,3.93
2017-10-25T13:31:06.681Z,3.90
2017-10-25T13:33:34.971Z,2.20
2017-10-25T13:36:02.509Z,2.63
2017-10-25T13:38:30.011Z,4.40
2017-10-25T13:40:58.338Z,6.77
2017-10-25T13:43:25.842Z,5.63
2017-10-25T13:45:53.345Z,4.67
2017-10-25T13:48:21.641Z,4.97
2017-10-25T13:50:49.917Z,4.50
2017-10-25T13:53:17.442Z,2.90
2017-10-25T13:55:44.938Z,3.63
2017-10-25T13:58:12.489Z,5.03
2017-10-25T14:00:39.992Z,2.20
2017-10-25T14:03:07.485Z,3.03
2017-10-25T14:05:35.092Z,4.27
2017-10-25T14:08:02.588Z,4.20
2017-10-25T14:10:30.120Z,4.70
2017-10-25T14:12:57.628Z,4.47
2017-10-25T14:15:25.597Z,8.60
2017-10-25T14:17:54.646Z,5.90
2017-10-25T14:20:22.232Z,3.50
2017-10-25T14:22:49.751Z,3.13
2017-10-25T14:25:17.258Z,4.53
2017-10-25T14:27:56.489Z,3.53
2017-10-25T14:30:23.977Z,4.17
2017-10-25T14:32:51.507Z,3.97
2017-10-25T14:35:19.035Z,3.10
2017-10-25T14:37:46.564Z,2.83
2017-10-25T14:40:14.054Z,6.83
2017-10-25T14:42:41.591Z,5.53
2017-10-25T14:45:09.113Z,7.03
2017-10-25T14:47:36.656Z,6.30
2017-10-25T14:50:04.149Z,6.30
2017-10-25T14:52:31.647Z,3.30
2017-10-25T14:54:59.957Z,3.50
2017-10-25T14:57:27.455Z,2.20
2017-10-25T14:59:54.981Z,3.90
2017-10-25T15:02:22.488Z,2.53
2017-10-25T15:04:50.040Z,3.90
2017-10-25T15:07:17.585Z,2.80
2017-10-25T15:09:45.141Z,11.60
2017-10-25T15:12:12.639Z,3.37
2017-10-25T15:14:40.193Z,2.20
2017-10-25T15:17:07.682Z,2.80
2017-10-25T15:19:35.936Z,3.50
2017-10-25T15:22:03.458Z,4.07
2017-10-25T15:24:30.954Z,5.03
2017-10-25T15:26:58.507Z,5.70
2017-10-25T15:29:26.010Z,8.67
2017-10-25T15:31:53.562Z,8.37
2017-10-25T15:34:21.090Z,2.27
2017-10-25T15:36:48.626Z,6.27
2017-10-25T15:39:16.893Z,6.63
2017-10-25T15:41:44.418Z,4.73
2017-10-25T15:44:11.915Z,3.33
2017-10-25T15:46:39.442Z,3.23
2017-10-25T15:49:06.941Z,5.00
2017-10-25T15:51:34.565Z,3.27
2017-10-25T15:54:02.062Z,5.47
2017-10-25T15:56:29.649Z,4.00
2017-10-25T15:58:57.181Z,3.17
2017-10-25T16:01:24.688Z,4.00
2017-10-25T16:03:52.217Z,6.80
2017-10-25T16:06:19.723Z,5.13
2017-10-25T16:08:47.254Z,5.77
2017-10-25T16:11:14.754Z,5.70
2017-10-25T16:13:42.299Z,6.43
2017-10-25T16:16:09.798Z,4.57
2017-10-25T16:18:37.352Z,2.77
2017-10-25T16:21:04.845Z,7.30
2017-10-25T16:23:32.364Z,7.50
2017-10-25T16:26:00.688Z,3.20
2017-10-25T16:28:28.190Z,4.77
2017-10-25T16:30:56.334Z,8.50
2017-10-25T16:33:23.839Z,8.10
2017-10-25T16:35:51.485Z,4.73
2017-10-25T16:38:18.992Z,3.27
2017-10-25T16:40:46.485Z,6.70
2017-10-25T16:43:14.789Z,6.43
2017-10-25T16:45:43.070Z,5.10
2017-10-25T16:48:10.621Z,4.07
2017-10-25T16:50:38.138Z,9.37
2017-10-25T16:53:05.672Z,6.63
2017-10-25T16:55:33.174Z,7.03
2017-10-25T16:58:00.681Z,10.83
2017-10-25T17:00:28.222Z,6.60
2017-10-25T17:02:55.746Z,5.20
2017-10-25T17:05:23.296Z,6.70
2017-10-25T17:07:50.800Z,8.40
2017-10-25T17:10:19.108Z,9.83
2017-10-25T17:12:47.407Z,14.87
2017-10-25T17:15:14.993Z,11.00
2017-10-25T17:17:42.511Z,8.30
2017-10-25T17:20:12.248Z,15.07
2017-10-25T17:22:39.744Z,10.30
2017-10-25T17:25:07.334Z,9.43
2017-10-25T17:27:34.886Z,11.37
2017-10-25T17:30:04.782Z,10.60
2017-10-25T17:32:32.328Z,13.30
2017-10-25T17:34:59.845Z,13.13
2017-10-25T17:37:28.169Z,16.17
2017-10-25T17:39:55.706Z,12.07
2017-10-25T17:42:24.726Z,9.03
2017-10-25T17:44:52.244Z,14.10
2017-10-25T17:47:19.766Z,14.10
2017-10-25T17:49:47.311Z,13.90
2017-10-25T17:52:14.816Z,14.93
2017-10-25T17:54:42.367Z,12.33
2017-10-25T17:57:10.658Z,12.17
2017-10-25T17:59:38.193Z,11.60
2017-10-25T18:02:05.693Z,12.53
2017-10-25T18:04:33.263Z,14.57
2017-10-25T18:07:00.765Z,16.20
2017-10-25T18:09:28.285Z,16.30
2017-10-25T18:11:55.838Z,21.17
2017-10-25T18:14:23.341Z,16.30
2017-10-25T18:16:50.890Z,27.13
2017-10-25T18:19:18.394Z,18.80
2017-10-25T18:21:45.900Z,17.83
2017-10-25T18:24:13.437Z,15.90
2017-10-25T18:26:40.941Z,16.07
2017-10-25T18:29:08.594Z,19.07
2017-10-25T18:31:36.900Z,18.73
2017-10-25T18:34:05.217Z,20.80
2017-10-25T18:36:32.730Z,19.40
2017-10-25T18:39:00.378Z,13.30
2017-10-25T18:41:27.926Z,18.57
2017-10-25T18:43:55.439Z,14.63
2017-10-25T18:46:22.977Z,17.37
2017-10-25T18:48:50.614Z,19.60
2017-10-25T18:51:18.913Z,17.93
2017-10-25T18:53:46.432Z,18.60
2017-10-25T18:56:13.991Z,20.27
2017-10-25T18:58:41.501Z,16.47
2017-10-25T19:01:10.044Z,17.10
2017-10-25T19:03:37.608Z,20.10
2017-10-25T19:06:05.145Z,20.93
2017-10-25T19:08:32.700Z,23.40
2017-10-25T19:11:00.235Z,16.43
2017-10-25T19:13:27.767Z,25.30
2017-10-25T19:15:55.270Z,21.70
2017-10-25T19:18:22.841Z,19.00
2017-10-25T19:20:50.434Z,25.40
2017-10-25T19:23:17.971Z,19.20
2017-10-25T19:25:46.274Z,14.23
2017-10-25T19:28:13.788Z,14.90
2017-10-25T19:30:41.345Z,26.03
2017-10-25T19:33:08.865Z,17.13
2017-10-25T19:35:36.362Z,21.60
2017-10-25T19:38:03.897Z,15.93
2017-10-25T19:40:31.402Z,21.73
2017-10-25T19:42:58.945Z,16.50
2017-10-25T19:45:27.230Z,20.23
2017-10-25T19:47:54.776Z,19.83
2017-10-25T19:50:22.293Z,18.80
2017-10-25T19:52:50.653Z,21.90
2017-10-25T19:55:18.181Z,17.67
2017-10-25T19:57:45.688Z,18.33
2017-10-25T20:00:13.233Z,21.33
2017-10-25T20:02:40.745Z,20.23
2017-10-25T20:05:08.311Z,19.27
2017-10-25T20:07:35.824Z,17.20
2017-10-25T20:10:04.164Z,23.13
2017-10-25T20:12:31.658Z,19.50
2017-10-25T20:14:59.175Z,18.37
2017-10-25T20:17:26.726Z,22.77
2017-10-25T20:19:54.240Z,20.37
2017-10-25T20:22:21.777Z,22.13
2017-10-25T20:24:49.270Z,18.33
2017-10-25T20:27:16.838Z,19.57
2017-10-25T20:29:44.342Z,18.10
2017-10-25T20:32:11.875Z,20.50
2017-10-25T20:34:40.373Z,16.60
2017-10-25T20:37:07.885Z,17.07
2017-10-25T20:39:35.430Z,16.93
2017-10-25T20:42:02.943Z,24.27
2017-10-25T20:44:30.494Z,17.33
2017-10-25T20:46:58.003Z,24.77
2017-10-25T20:49:25.556Z,18.87
2017-10-25T20:51:53.073Z,17.00
2017-10-25T20:54:20.795Z,13.87
2017-10-25T20:56:48.324Z,20.97
2017-10-25T20:59:15.899Z,23.07
2017-10-25T21:01:43.443Z,19.40
2017-10-25T21:04:11.715Z,21.00
2017-10-25T21:06:39.250Z,16.03
2017-10-25T21:09:06.782Z,11.20
2017-10-25T21:11:34.323Z,15.63
2017-10-25T21:14:01.846Z,20.70
2017-10-25T21:16:29.385Z,19.17
2017-10-25T21:18:57.655Z,22.90
2017-10-25T21:21:25.215Z,20.97
2017-10-25T21:23:52.739Z,18.17
2017-10-25T21:26:20.250Z,17.77
2017-10-25T21:28:47.788Z,16.97
2017-10-25T21:31:15.304Z,17.57
2017-10-25T21:33:42.848Z,24.77
2017-10-25T21:36:10.346Z,20.43
2017-10-25T21:38:37.885Z,17.37
2017-10-25T21:41:05.389Z,27.20
2017-10-25T21:43:32.935Z,18.40
2017-10-25T21:46:00.436Z,19.87
2017-10-25T21:48:27.982Z,15.30
2017-10-25T21:50:55.486Z,19.67
2017-10-25T21:53:23.077Z,18.77
2017-10-25T21:55:50.614Z,13.13
2017-10-25T21:58:18.117Z,18.87
2017-10-25T22:00:45.657Z,12.90
2017-10-25T22:03:13.867Z,17.73
2017-10-25T22:05:43.042Z,19.00
2017-10-25T22:08:10.602Z,15.10
2017-10-25T22:10:38.740Z,22.23
2017-10-25T22:13:06.497Z,14.50
2017-10-25T22:15:34.237Z,16.90
2017-10-25T22:18:05.120Z,14.20
2017-10-25T22:20:32.618Z,14.00
2017-10-25T22:23:00.793Z,18.40
2017-10-25T22:25:29.216Z,15.60
2017-10-25T22:28:06.965Z,13.30
2017-10-25T22:30:34.482Z,10.67
2017-10-25T22:33:02.038Z,11.27
2017-10-25T22:35:29.543Z,10.07
2017-10-25T22:37:57.096Z,11.80
2017-10-25T22:40:24.642Z,12.53
2017-10-25T22:42:52.148Z,12.83
2017-10-25T22:45:20.026Z,10.43
2017-10-25T22:47:47.532Z,10.53
2017-10-25T22:50:15.093Z,16.37
2017-10-25T22:52:42.615Z,10.30
2017-10-25T22:55:10.153Z,12.33
2017-10-25T22:57:37.679Z,12.50
2017-10-25T23:00:22.886Z,11.97
2017-10-25T23:02:50.461Z,12.77
2017-10-25T23:05:17.969Z,8.47
2017-10-25T23:07:45.510Z,9.33
2017-10-25T23:10:21.868Z,14.93
2017-10-25T23:12:50.619Z,15.53
2017-10-25T23:15:18.360Z,16.37
2017-10-25T23:17:48.318Z,15.27
2017-10-25T23:20:15.898Z,20.73
2017-10-25T23:22:43.437Z,12.33
2017-10-25T23:25:11.306Z,14.50
2017-10-25T23:27:39.042Z,18.27
2017-10-25T23:30:23.929Z,15.23
2017-10-25T23:32:52.292Z,10.83
2017-10-25T23:35:20.454Z,12.87
2017-10-25T23:37:48.364Z,15.87
2017-10-25T23:40:15.931Z,11.23
2017-10-25T23:42:44.222Z,9.77
2017-10-25T23:45:11.937Z,10.33
2017-10-25T23:47:39.440Z,14.60
2017-10-25T23:50:08.252Z,21.90
2017-10-25T23:52:35.805Z,12.03
2017-10-25T23:55:04.025Z,11.73
2017-10-25T23:57:33.090Z,11.03
